createdAt,value
2018-03-27T00:00:09.192Z,5.40
2018-03-27T00:02:37.441Z,4.93
2018-03-27T00:05:06.476Z,6.00
2018-03-27T00:07:34.752Z,6.03
2018-03-27T00:10:03.022Z,4.93
2018-03-27T00:12:31.275Z,6.03
2018-03-27T00:14:59.532Z,5.80
2018-03-27T00:17:28.546Z,5.20
2018-03-27T00:19:56.802Z,4.60
2018-03-27T00:22:25.818Z,4.10
2018-03-27T00:24:54.069Z,5.47
2018-03-27T00:27:34.845Z,6.10
2018-03-27T00:30:16.207Z,6.17
2018-03-27T00:32:57.166Z,5.40
2018-03-27T00:35:37.720Z,5.80
2018-03-27T00:38:18.033Z,6.23
2018-03-27T00:40:46.775Z,6.70
2018-03-27T00:43:15.040Z,6.63
2018-03-27T00:45:43.305Z,5.30
2018-03-27T00:48:11.564Z,5.37
2018-03-27T00:50:39.807Z,5.30
2018-03-27T00:53:08.842Z,4.93
2018-03-27T00:55:37.104Z,7.00
2018-03-27T00:58:05.358Z,6.80
2018-03-27T01:00:34.379Z,8.03
2018-03-27T01:03:02.639Z,6.50
2018-03-27T01:05:30.890Z,6.70
2018-03-27T01:07:59.141Z,3.93
2018-03-27T01:10:28.920Z,6.17
2018-03-27T01:12:57.195Z,5.60
2018-03-27T01:15:25.458Z,6.30
2018-03-27T01:17:54.449Z,6.60
2018-03-27T01:20:22.719Z,5.30
2018-03-27T01:22:51.758Z,5.70
2018-03-27T01:25:20.006Z,5.17
2018-03-27T01:27:48.250Z,6.70
2018-03-27T01:30:17.272Z,6.60
2018-03-27T01:32:45.521Z,6.23
2018-03-27T01:35:14.546Z,5.73
2018-03-27T01:37:42.825Z,5.53
2018-03-27T01:40:11.081Z,4.90
2018-03-27T01:42:39.363Z,5.03
2018-03-27T01:45:07.637Z,5.40
2018-03-27T01:47:36.055Z,5.97
2018-03-27T01:50:04.307Z,5.97
2018-03-27T01:52:32.573Z,5.90
2018-03-27T01:55:00.831Z,6.63
2018-03-27T01:57:29.855Z,6.27
2018-03-27T01:59:58.110Z,6.00
2018-03-27T02:02:26.365Z,5.33
2018-03-27T02:04:55.403Z,7.10
2018-03-27T02:07:23.662Z,6.33
2018-03-27T02:09:51.934Z,5.30
2018-03-27T02:12:25.828Z,4.50
2018-03-27T02:15:00.839Z,3.80
2018-03-27T02:17:34.801Z,4.53
2018-03-27T02:20:09.067Z,6.23
2018-03-27T02:22:39.947Z,5.40
2018-03-27T02:25:08.201Z,6.10
2018-03-27T02:27:37.237Z,6.53
2018-03-27T02:30:05.491Z,6.20
2018-03-27T02:32:33.752Z,4.70
2018-03-27T02:35:02.789Z,4.00
2018-03-27T02:37:31.046Z,4.60
2018-03-27T02:39:59.306Z,6.70
2018-03-27T02:42:27.642Z,5.57
2018-03-27T02:44:55.911Z,6.80
2018-03-27T02:47:24.172Z,7.17
2018-03-27T02:49:52.428Z,7.50
2018-03-27T02:52:20.691Z,5.70
2018-03-27T02:54:48.984Z,5.83
2018-03-27T02:57:17.233Z,4.77
2018-03-27T02:59:46.251Z,5.03
2018-03-27T03:02:14.527Z,5.80
2018-03-27T03:04:42.792Z,4.60
2018-03-27T03:07:11.055Z,4.67
2018-03-27T03:09:40.074Z,5.93
2018-03-27T03:12:08.347Z,6.57
2018-03-27T03:14:36.599Z,5.90
2018-03-27T03:17:05.614Z,6.30
2018-03-27T03:19:33.872Z,6.20
2018-03-27T03:22:02.136Z,5.27
2018-03-27T03:24:31.186Z,8.10
2018-03-27T03:26:59.446Z,6.83
2018-03-27T03:29:27.718Z,7.50
2018-03-27T03:31:55.963Z,5.27
2018-03-27T03:34:25.004Z,5.90
2018-03-27T03:36:53.260Z,5.60
2018-03-27T03:39:21.510Z,6.80
2018-03-27T03:41:50.527Z,5.00
2018-03-27T03:44:18.782Z,6.67
2018-03-27T03:46:47.040Z,6.63
2018-03-27T03:49:15.312Z,7.53
2018-03-27T03:51:43.573Z,5.77
2018-03-27T03:54:11.829Z,5.27
2018-03-27T03:56:40.072Z,6.50
2018-03-27T03:59:08.337Z,7.03
2018-03-27T04:01:37.395Z,6.50
2018-03-27T04:04:05.656Z,5.77
2018-03-27T04:06:33.912Z,4.60
2018-03-27T04:09:03.158Z,6.23
2018-03-27T04:11:32.231Z,6.40
2018-03-27T04:14:00.482Z,5.00
2018-03-27T04:16:28.751Z,5.37
2018-03-27T04:18:57.008Z,2.37
2018-03-27T04:21:25.268Z,5.10
2018-03-27T04:23:54.280Z,4.97
2018-03-27T04:26:22.535Z,4.87
2018-03-27T04:28:51.624Z,6.53
2018-03-27T04:31:20.655Z,5.87
2018-03-27T04:33:48.947Z,6.30
2018-03-27T04:36:17.199Z,7.80
2018-03-27T04:38:45.465Z,7.87
2018-03-27T04:41:14.475Z,6.63
2018-03-27T04:43:42.730Z,5.67
2018-03-27T04:46:11.757Z,6.30
2018-03-27T04:48:40.027Z,7.33
2018-03-27T04:51:08.286Z,5.03
2018-03-27T04:53:36.549Z,4.17
2018-03-27T04:56:05.572Z,4.63
2018-03-27T04:58:33.848Z,5.87
2018-03-27T05:01:02.121Z,4.77
2018-03-27T05:03:30.414Z,5.20
2018-03-27T05:05:58.665Z,6.60
2018-03-27T05:08:26.978Z,5.53
2018-03-27T05:10:55.333Z,3.97
2018-03-27T05:13:23.673Z,6.70
2018-03-27T05:15:51.928Z,3.47
2018-03-27T05:18:20.181Z,2.17
2018-03-27T05:20:48.451Z,5.60
2018-03-27T05:23:16.719Z,5.83
2018-03-27T05:25:45.016Z,4.80
2018-03-27T05:28:13.275Z,7.93
2018-03-27T05:30:41.568Z,7.20
2018-03-27T05:33:09.827Z,6.33
2018-03-27T05:35:38.104Z,7.67
2018-03-27T05:38:06.368Z,5.90
2018-03-27T05:40:34.633Z,6.07
2018-03-27T05:43:02.896Z,6.77
2018-03-27T05:45:31.168Z,6.23
2018-03-27T05:48:00.191Z,7.10
2018-03-27T05:50:28.511Z,7.20
2018-03-27T05:52:56.786Z,8.43
2018-03-27T05:55:25.819Z,6.40
2018-03-27T05:57:54.842Z,8.50
2018-03-27T06:00:23.112Z,7.20
2018-03-27T06:02:51.370Z,7.43
2018-03-27T06:05:19.644Z,7.13
2018-03-27T06:07:48.689Z,5.77
2018-03-27T06:10:16.951Z,8.10
2018-03-27T06:12:45.251Z,7.30
2018-03-27T06:15:13.521Z,7.57
2018-03-27T06:17:41.798Z,6.80
2018-03-27T06:20:11.591Z,3.97
2018-03-27T06:22:39.850Z,5.27
2018-03-27T06:25:08.123Z,5.93
2018-03-27T06:27:36.422Z,6.00
2018-03-27T06:30:04.661Z,7.23
2018-03-27T06:32:32.944Z,6.93
2018-03-27T06:35:01.206Z,5.90
2018-03-27T06:37:29.483Z,6.37
2018-03-27T06:39:58.501Z,6.83
2018-03-27T06:42:26.824Z,5.60
2018-03-27T06:44:55.090Z,7.10
2018-03-27T06:47:23.352Z,7.03
2018-03-27T06:49:51.611Z,8.17
2018-03-27T06:52:19.886Z,4.73
2018-03-27T06:54:48.144Z,7.00
2018-03-27T06:57:16.408Z,7.10
2018-03-27T06:59:45.444Z,7.80
2018-03-27T07:02:13.707Z,7.40
2018-03-27T07:04:42.001Z,7.17
2018-03-27T07:07:10.326Z,7.60
2018-03-27T07:09:39.384Z,7.43
2018-03-27T07:12:07.640Z,3.67
2018-03-27T07:14:35.879Z,6.60
2018-03-27T07:17:04.140Z,7.10
2018-03-27T07:19:33.178Z,3.40
2018-03-27T07:22:01.441Z,5.87
2018-03-27T07:24:29.713Z,6.93
2018-03-27T07:26:58.065Z,7.33
2018-03-27T07:29:26.262Z,7.90
2018-03-27T07:31:54.528Z,6.47
2018-03-27T07:34:23.551Z,6.10
2018-03-27T07:36:52.569Z,4.00
2018-03-27T07:39:20.822Z,6.97
2018-03-27T07:41:49.096Z,7.77
2018-03-27T07:44:17.360Z,7.20
2018-03-27T07:46:45.663Z,8.70
2018-03-27T07:49:13.939Z,8.47
2018-03-27T07:51:42.211Z,7.20
2018-03-27T07:54:10.697Z,7.00
2018-03-27T07:56:39.075Z,7.60
2018-03-27T07:59:07.326Z,8.87
2018-03-27T08:01:35.605Z,10.40
2018-03-27T08:04:03.870Z,10.37
2018-03-27T08:06:32.134Z,11.27
2018-03-27T08:09:01.160Z,10.10
2018-03-27T08:11:29.470Z,15.47
2018-03-27T08:13:57.750Z,14.53
2018-03-27T08:16:26.103Z,15.57
2018-03-27T08:18:54.364Z,18.27
2018-03-27T08:21:22.640Z,20.40
2018-03-27T08:23:50.896Z,20.37
2018-03-27T08:26:19.182Z,17.20
2018-03-27T08:28:47.489Z,17.37
2018-03-27T08:31:15.760Z,18.40
2018-03-27T08:33:44.109Z,17.07
2018-03-27T08:36:12.547Z,17.17
2018-03-27T08:38:40.774Z,16.33
2018-03-27T08:41:09.043Z,16.90
2018-03-27T08:43:37.304Z,8.03
2018-03-27T08:46:05.596Z,17.80
2018-03-27T08:48:34.703Z,16.40
2018-03-27T08:51:03.096Z,20.10
2018-03-27T08:53:31.578Z,19.47
2018-03-27T08:55:59.847Z,22.10
2018-03-27T08:58:28.185Z,21.13
2018-03-27T09:00:56.476Z,23.83
2018-03-27T09:03:25.554Z,20.03
2018-03-27T09:05:54.588Z,18.97
2018-03-27T09:08:22.859Z,20.30
2018-03-27T09:10:51.165Z,19.80
2018-03-27T09:13:20.196Z,17.40
2018-03-27T09:15:49.253Z,18.67
2018-03-27T09:18:17.524Z,22.67
2018-03-27T09:20:45.885Z,21.33
2018-03-27T09:23:14.148Z,18.27
2018-03-27T09:25:42.428Z,14.40
2018-03-27T09:28:10.693Z,17.37
2018-03-27T09:30:39.100Z,19.23
2018-03-27T09:33:07.376Z,18.10
2018-03-27T09:35:36.578Z,18.20
2018-03-27T09:38:06.029Z,18.00
2018-03-27T09:40:34.316Z,11.27
2018-03-27T09:43:03.488Z,15.50
2018-03-27T09:45:32.788Z,15.07
2018-03-27T09:48:01.835Z,11.37
2018-03-27T09:50:30.104Z,9.07
2018-03-27T09:52:58.387Z,6.13
2018-03-27T09:55:26.676Z,12.43
2018-03-27T09:57:55.197Z,10.77
2018-03-27T10:00:30.085Z,10.13
2018-03-27T10:02:58.484Z,8.90
2018-03-27T10:05:26.851Z,10.87
2018-03-27T10:07:55.216Z,8.90
2018-03-27T10:10:23.505Z,6.70
2018-03-27T10:12:51.774Z,4.87
2018-03-27T10:15:20.121Z,5.63
2018-03-27T10:17:48.448Z,6.00
2018-03-27T10:20:16.728Z,6.33
2018-03-27T10:22:45.006Z,7.13
2018-03-27T10:25:13.267Z,6.00
2018-03-27T10:27:41.632Z,8.93
2018-03-27T10:30:09.898Z,7.57
2018-03-27T10:32:38.169Z,7.83
2018-03-27T10:35:06.456Z,8.97
2018-03-27T10:37:34.940Z,7.13
2018-03-27T10:40:03.214Z,9.50
2018-03-27T10:42:31.528Z,11.53
2018-03-27T10:45:00.568Z,8.83
2018-03-27T10:47:28.879Z,10.90
2018-03-27T10:49:57.191Z,9.93
2018-03-27T10:52:25.531Z,8.70
2018-03-27T10:54:53.998Z,9.07
2018-03-27T10:57:22.370Z,10.70
2018-03-27T10:59:50.667Z,10.40
2018-03-27T11:02:18.942Z,10.07
2018-03-27T11:04:47.223Z,9.07
2018-03-27T11:07:15.526Z,12.00
2018-03-27T11:09:44.564Z,10.47
2018-03-27T11:12:13.664Z,13.50
2018-03-27T11:14:41.953Z,9.70
2018-03-27T11:17:10.843Z,10.13
2018-03-27T11:19:40.041Z,12.13
2018-03-27T11:22:08.325Z,9.50
2018-03-27T11:24:36.616Z,10.97
2018-03-27T11:27:04.873Z,11.20
2018-03-27T11:29:33.179Z,9.70
2018-03-27T11:32:01.445Z,11.30
2018-03-27T11:34:29.780Z,10.70
2018-03-27T11:36:58.829Z,8.93
2018-03-27T11:39:27.995Z,7.40
2018-03-27T11:41:56.294Z,8.30
2018-03-27T11:44:24.568Z,6.80
2018-03-27T11:46:52.855Z,8.00
2018-03-27T11:49:21.926Z,10.97
2018-03-27T11:51:50.209Z,7.03
2018-03-27T11:54:19.996Z,6.67
2018-03-27T11:56:48.270Z,9.60
2018-03-27T11:59:16.532Z,9.97
2018-03-27T12:01:44.806Z,10.50
2018-03-27T12:04:13.249Z,11.53
2018-03-27T12:06:42.372Z,11.17
2018-03-27T12:09:10.650Z,9.57
2018-03-27T12:11:38.929Z,7.07
2018-03-27T12:14:07.186Z,10.80
2018-03-27T12:16:35.608Z,7.90
2018-03-27T12:19:03.917Z,13.57
2018-03-27T12:21:32.215Z,9.47
2018-03-27T12:24:00.515Z,10.80
2018-03-27T12:26:28.825Z,14.17
2018-03-27T12:28:58.164Z,7.20
2018-03-27T12:31:27.213Z,15.60
2018-03-27T12:33:55.481Z,16.60
2018-03-27T12:36:23.893Z,11.83
2018-03-27T12:38:53.161Z,12.93
2018-03-27T12:41:21.578Z,10.17
2018-03-27T12:43:50.615Z,10.57
2018-03-27T12:46:18.916Z,16.10
2018-03-27T12:48:47.224Z,17.13
2018-03-27T12:51:15.553Z,10.63
2018-03-27T12:53:43.837Z,14.93
2018-03-27T12:56:12.144Z,15.43
2018-03-27T12:58:40.456Z,17.07
2018-03-27T13:01:08.763Z,21.47
2018-03-27T13:03:37.057Z,11.77
2018-03-27T13:06:05.382Z,20.87
2018-03-27T13:08:33.713Z,17.17
2018-03-27T13:11:02.083Z,14.30
2018-03-27T13:13:30.419Z,16.70
2018-03-27T13:15:59.446Z,16.30
2018-03-27T13:18:27.728Z,11.30
2018-03-27T13:20:56.108Z,17.00
2018-03-27T13:23:24.416Z,17.60
2018-03-27T13:25:53.504Z,15.67
2018-03-27T13:28:21.963Z,18.63
2018-03-27T13:30:50.229Z,13.13
2018-03-27T13:33:18.509Z,14.00
2018-03-27T13:35:46.773Z,17.50
2018-03-27T13:38:15.085Z,22.00
2018-03-27T13:40:43.428Z,16.17
2018-03-27T13:43:11.784Z,18.07
2018-03-27T13:45:40.099Z,8.17
2018-03-27T13:48:08.382Z,16.10
2018-03-27T13:50:36.713Z,9.50
2018-03-27T13:53:04.932Z,15.07
2018-03-27T13:55:33.202Z,14.23
2018-03-27T13:58:01.495Z,14.20
2018-03-27T14:00:29.823Z,13.20
2018-03-27T14:02:58.112Z,14.80
2018-03-27T14:05:26.371Z,9.73
2018-03-27T14:07:54.733Z,10.80
2018-03-27T14:10:23.809Z,10.53
2018-03-27T14:12:52.242Z,9.47
2018-03-27T14:15:21.158Z,10.23
2018-03-27T14:17:49.440Z,13.40
2018-03-27T14:20:17.815Z,13.87
2018-03-27T14:22:46.089Z,13.93
2018-03-27T14:25:14.977Z,9.97
2018-03-27T14:27:43.273Z,11.37
2018-03-27T14:30:11.570Z,12.30
2018-03-27T14:32:40.637Z,15.07
2018-03-27T14:35:08.980Z,9.47
2018-03-27T14:37:37.255Z,12.33
2018-03-27T14:40:05.528Z,9.20
2018-03-27T14:42:33.830Z,9.87
2018-03-27T14:45:02.115Z,13.23
2018-03-27T14:47:30.485Z,10.80
2018-03-27T14:49:58.766Z,10.80
2018-03-27T14:52:27.051Z,10.30
2018-03-27T14:54:55.418Z,14.03
2018-03-27T14:57:23.680Z,7.83
2018-03-27T14:59:52.612Z,17.37
2018-03-27T15:02:21.396Z,10.07
2018-03-27T15:04:49.775Z,13.87
2018-03-27T15:07:18.077Z,13.33
2018-03-27T15:09:47.114Z,16.60
2018-03-27T15:12:15.473Z,16.57
2018-03-27T15:14:43.724Z,17.23
2018-03-27T15:17:12.872Z,17.00
2018-03-27T15:19:41.170Z,15.83
2018-03-27T15:22:10.263Z,13.70
2018-03-27T15:24:38.536Z,20.20
2018-03-27T15:27:06.810Z,9.53
2018-03-27T15:29:35.069Z,12.47
2018-03-27T15:32:03.350Z,17.30
2018-03-27T15:34:31.611Z,12.20
2018-03-27T15:37:00.007Z,11.20
2018-03-27T15:39:28.296Z,15.70
2018-03-27T15:41:56.580Z,12.03
2018-03-27T15:44:24.858Z,22.20
2018-03-27T15:46:53.169Z,8.37
2018-03-27T15:49:21.452Z,19.57
2018-03-27T15:51:49.706Z,19.53
2018-03-27T15:54:18.760Z,13.57
2018-03-27T15:56:47.093Z,18.60
2018-03-27T15:59:15.362Z,19.60
2018-03-27T16:01:44.458Z,20.50
2018-03-27T16:04:13.515Z,16.07
2018-03-27T16:06:41.777Z,21.03
2018-03-27T16:09:10.086Z,16.63
2018-03-27T16:11:38.396Z,17.73
2018-03-27T16:14:06.672Z,12.80
2018-03-27T16:16:34.983Z,18.63
2018-03-27T16:19:03.398Z,18.17
2018-03-27T16:21:32.459Z,16.17
2018-03-27T16:24:00.770Z,23.73
2018-03-27T16:26:29.069Z,21.47
2018-03-27T16:28:58.155Z,13.40
2018-03-27T16:31:27.251Z,19.53
2018-03-27T16:33:56.319Z,22.00
2018-03-27T16:36:24.606Z,13.10
2018-03-27T16:38:54.837Z,10.87
2018-03-27T16:41:23.907Z,19.13
2018-03-27T16:43:52.211Z,17.47
2018-03-27T16:46:21.247Z,20.47
2018-03-27T16:48:49.676Z,18.57
2018-03-27T16:51:17.935Z,19.60
2018-03-27T16:53:46.202Z,21.47
2018-03-27T16:56:14.462Z,24.40
2018-03-27T16:58:42.745Z,29.13
2018-03-27T17:01:11.037Z,29.37
2018-03-27T17:03:39.360Z,23.40
2018-03-27T17:06:07.635Z,21.87
2018-03-27T17:08:35.911Z,31.20
2018-03-27T17:11:04.244Z,29.63
2018-03-27T17:13:32.500Z,29.63
2018-03-27T17:16:00.936Z,31.50
2018-03-27T17:18:30.044Z,33.07
2018-03-27T17:20:58.377Z,27.00
2018-03-27T17:23:26.692Z,29.20
2018-03-27T17:25:55.097Z,30.10
2018-03-27T17:28:23.360Z,30.27
2018-03-27T17:30:51.724Z,29.70
2018-03-27T17:33:20.752Z,26.80
2018-03-27T17:35:49.033Z,30.83
2018-03-27T17:38:17.440Z,27.07
2018-03-27T17:40:45.698Z,31.13
2018-03-27T17:43:13.976Z,30.77
2018-03-27T17:45:42.258Z,30.40
2018-03-27T17:48:10.549Z,28.73
2018-03-27T17:50:38.818Z,30.73
2018-03-27T17:53:07.130Z,33.40
2018-03-27T17:55:35.405Z,31.37
2018-03-27T17:58:04.435Z,32.43
2018-03-27T18:00:33.134Z,33.50
2018-03-27T18:03:01.401Z,30.23
2018-03-27T18:05:29.745Z,33.97
2018-03-27T18:07:58.025Z,35.00
2018-03-27T18:10:26.299Z,35.63
2018-03-27T18:12:54.578Z,29.53
2018-03-27T18:15:22.885Z,32.90
2018-03-27T18:17:51.154Z,34.83
2018-03-27T18:20:19.423Z,33.13
2018-03-27T18:22:47.708Z,31.27
2018-03-27T18:25:15.967Z,33.90
2018-03-27T18:27:45.114Z,44.57
2018-03-27T18:30:14.993Z,36.10
2018-03-27T18:32:43.379Z,38.33
2018-03-27T18:35:12.423Z,37.77
2018-03-27T18:37:41.452Z,32.30
2018-03-27T18:40:09.732Z,34.33
2018-03-27T18:42:38.019Z,36.57
2018-03-27T18:45:06.288Z,36.87
2018-03-27T18:47:34.558Z,37.47
2018-03-27T18:50:02.836Z,36.60
2018-03-27T18:52:31.125Z,33.13
2018-03-27T18:54:59.388Z,39.00
2018-03-27T18:57:27.695Z,36.77
2018-03-27T18:59:55.958Z,34.20
2018-03-27T19:02:24.222Z,38.53
2018-03-27T19:04:52.499Z,38.80
2018-03-27T19:07:20.793Z,42.47
2018-03-27T19:09:49.080Z,39.30
2018-03-27T19:12:17.358Z,36.83
2018-03-27T19:14:45.630Z,43.60
2018-03-27T19:17:13.900Z,38.80
2018-03-27T19:19:42.183Z,38.07
2018-03-27T19:22:10.474Z,35.00
2018-03-27T19:24:39.525Z,35.27
2018-03-27T19:27:07.782Z,34.00
2018-03-27T19:29:36.057Z,21.90
2018-03-27T19:32:04.354Z,37.17
2018-03-27T19:34:32.627Z,25.60
2018-03-27T19:37:00.889Z,28.13
2018-03-27T19:39:29.214Z,33.80
2018-03-27T19:41:57.485Z,23.50
2018-03-27T19:44:25.752Z,16.90
2018-03-27T19:46:54.020Z,19.03
2018-03-27T19:49:22.282Z,12.60
2018-03-27T19:51:50.551Z,22.07
2018-03-27T19:54:18.854Z,18.20
2018-03-27T19:56:47.119Z,16.57
2018-03-27T19:59:15.378Z,15.67
2018-03-27T20:01:43.646Z,20.07
2018-03-27T20:04:11.913Z,27.50
2018-03-27T20:06:40.179Z,21.53
2018-03-27T20:09:09.204Z,18.70
2018-03-27T20:11:37.474Z,21.07
2018-03-27T20:14:05.763Z,27.83
2018-03-27T20:16:34.038Z,19.93
2018-03-27T20:19:02.291Z,26.50
2018-03-27T20:21:30.564Z,15.30
2018-03-27T20:23:59.595Z,20.40
2018-03-27T20:26:27.890Z,17.97
2018-03-27T20:28:56.156Z,18.57
2018-03-27T20:31:24.414Z,22.70
2018-03-27T20:33:52.733Z,30.97
2018-03-27T20:36:21.003Z,18.50
2018-03-27T20:38:49.273Z,28.90
2018-03-27T20:41:18.313Z,19.47
2018-03-27T20:43:46.631Z,19.80
2018-03-27T20:46:14.888Z,19.50
2018-03-27T20:48:43.184Z,30.83
2018-03-27T20:51:11.465Z,21.37
2018-03-27T20:53:39.734Z,27.10
2018-03-27T20:56:08.120Z,15.50
2018-03-27T20:58:36.386Z,14.47
2018-03-27T21:01:04.663Z,23.13
2018-03-27T21:03:32.941Z,20.50
2018-03-27T21:06:01.195Z,19.50
2018-03-27T21:08:29.473Z,21.80
2018-03-27T21:10:57.735Z,20.67
2018-03-27T21:13:26.007Z,16.90
2018-03-27T21:15:54.284Z,26.23
2018-03-27T21:18:22.612Z,19.00
2018-03-27T21:20:50.874Z,21.10
2018-03-27T21:23:19.270Z,17.30
2018-03-27T21:25:48.299Z,26.37
2018-03-27T21:28:17.337Z,29.33
2018-03-27T21:30:45.609Z,27.57
2018-03-27T21:33:13.867Z,26.57
2018-03-27T21:35:42.121Z,29.93
2018-03-27T21:38:10.393Z,15.13
2018-03-27T21:40:39.408Z,25.50
2018-03-27T21:43:07.665Z,24.60
2018-03-27T21:45:36.688Z,31.70
2018-03-27T21:48:04.986Z,23.40
2018-03-27T21:50:33.237Z,28.40
2018-03-27T21:53:01.539Z,19.43
2018-03-27T21:55:29.798Z,32.27
2018-03-27T21:57:58.084Z,20.93
2018-03-27T22:00:26.358Z,36.17
2018-03-27T22:02:54.632Z,29.93
2018-03-27T22:05:22.912Z,22.47
2018-03-27T22:07:51.332Z,17.57
2018-03-27T22:10:20.628Z,30.70
2018-03-27T22:12:48.891Z,27.60
2018-03-27T22:15:17.956Z,15.73
2018-03-27T22:17:46.217Z,17.70
2018-03-27T22:20:14.489Z,17.70
2018-03-27T22:22:42.761Z,17.80
2018-03-27T22:25:15.209Z,11.37
2018-03-27T22:27:43.701Z,13.63
2018-03-27T22:30:12.747Z,15.47
2018-03-27T22:32:41.029Z,15.20
2018-03-27T22:35:09.305Z,18.37
2018-03-27T22:37:37.569Z,21.50
2018-03-27T22:40:05.849Z,28.07
2018-03-27T22:42:34.138Z,18.87
2018-03-27T22:45:02.402Z,28.20
2018-03-27T22:47:30.676Z,10.27
2018-03-27T22:49:58.948Z,22.67
2018-03-27T22:52:27.229Z,26.27
2018-03-27T22:54:55.503Z,21.07
2018-03-27T22:57:23.774Z,31.10
2018-03-27T22:59:52.042Z,30.57
2018-03-27T23:02:20.778Z,24.40
2018-03-27T23:04:49.049Z,25.00
2018-03-27T23:07:17.415Z,30.10
2018-03-27T23:09:45.745Z,29.10
2018-03-27T23:12:14.015Z,19.67
2018-03-27T23:14:42.280Z,22.63
2018-03-27T23:17:11.357Z,24.73
2018-03-27T23:19:40.855Z,25.37
2018-03-27T23:22:09.138Z,22.10
2018-03-27T23:24:37.400Z,18.97
2018-03-27T23:27:06.236Z,18.60
2018-03-27T23:29:35.382Z,16.73
2018-03-27T23:32:03.638Z,26.73
2018-03-27T23:34:32.005Z,23.00
2018-03-27T23:37:00.471Z,19.97
2018-03-27T23:39:28.745Z,14.83
2018-03-27T23:41:57.062Z,31.40
2018-03-27T23:44:26.104Z,25.60
2018-03-27T23:46:54.375Z,32.23
2018-03-27T23:49:23.406Z,31.67
2018-03-27T23:51:51.855Z,25.80
2018-03-27T23:54:20.214Z,29.43
2018-03-27T23:56:49.374Z,31.83
2018-03-27T23:59:17.767Z,28.67
